createdAt,value
2019-05-20T00:00:19.023Z,0.00
2019-05-20T00:01:18.999Z,0.00
2019-05-20T00:02:25.849Z,0.00
2019-05-20T00:03:19.975Z,0.00
2019-05-20T00:04:18.981Z,0.00
2019-05-20T00:05:18.971Z,0.00
2019-05-20T00:06:18.956Z,0.00
2019-05-20T00:07:18.934Z,0.00
2019-05-20T00:08:18.923Z,0.00
2019-05-20T00:09:18.912Z,0.00
2019-05-20T00:10:18.901Z,0.00
2019-05-20T00:11:18.928Z,0.00
2019-05-20T00:12:18.955Z,0.00
2019-05-20T00:13:18.870Z,0.00
2019-05-20T00:14:18.862Z,0.00
2019-05-20T00:15:18.852Z,0.00
2019-05-20T00:16:18.897Z,0.00
2019-05-20T00:17:18.838Z,0.00
2019-05-20T00:18:18.828Z,0.00
2019-05-20T00:19:18.807Z,0.00
2019-05-20T00:20:18.795Z,0.00
2019-05-20T00:21:18.785Z,0.00
2019-05-20T00:22:18.774Z,0.00
2019-05-20T00:23:18.773Z,0.00
2019-05-20T00:24:18.794Z,0.00
2019-05-20T00:25:18.743Z,0.00
2019-05-20T00:26:18.733Z,0.00
2019-05-20T00:27:18.728Z,0.00
2019-05-20T00:28:18.711Z,0.00
2019-05-20T00:29:18.711Z,0.00
2019-05-20T00:30:18.702Z,0.00
2019-05-20T00:31:18.680Z,0.00
2019-05-20T00:32:18.671Z,0.00
2019-05-20T00:33:18.659Z,0.00
2019-05-20T00:34:32.705Z,0.00
2019-05-20T00:35:19.650Z,0.00
2019-05-20T00:36:18.640Z,0.00
2019-05-20T00:37:18.616Z,0.00
2019-05-20T00:38:18.657Z,0.00
2019-05-20T00:39:18.595Z,0.00
2019-05-20T00:40:18.585Z,0.00
2019-05-20T00:41:18.586Z,0.00
2019-05-20T00:42:18.594Z,0.00
2019-05-20T00:43:18.553Z,0.00
2019-05-20T00:44:18.541Z,0.00
2019-05-20T00:45:18.537Z,0.00
2019-05-20T00:46:18.520Z,0.00
2019-05-20T00:47:18.521Z,0.00
2019-05-20T00:48:18.514Z,0.00
2019-05-20T00:49:18.497Z,0.00
2019-05-20T00:50:18.480Z,0.00
2019-05-20T00:51:18.473Z,0.00
2019-05-20T00:52:18.463Z,0.00
2019-05-20T00:53:18.459Z,0.00
2019-05-20T00:54:18.503Z,0.00
2019-05-20T00:55:18.427Z,0.00
2019-05-20T00:56:18.417Z,0.00
2019-05-20T00:57:18.405Z,0.00
2019-05-20T00:58:18.395Z,0.00
2019-05-20T00:59:18.396Z,0.00
2019-05-20T01:00:18.386Z,0.00
2019-05-20T01:01:18.364Z,0.00
2019-05-20T01:02:18.352Z,0.00
2019-05-20T01:03:18.342Z,0.00
2019-05-20T01:04:18.333Z,0.00
2019-05-20T01:05:18.334Z,0.00
2019-05-20T01:06:18.326Z,0.00
2019-05-20T01:07:18.299Z,0.00
2019-05-20T01:08:18.291Z,0.00
2019-05-20T01:09:18.279Z,0.00
2019-05-20T01:10:18.268Z,0.00
2019-05-20T01:11:18.273Z,0.00
2019-05-20T01:12:18.288Z,0.00
2019-05-20T01:13:18.233Z,0.00
2019-05-20T01:14:18.296Z,0.00
2019-05-20T01:15:18.216Z,0.00
2019-05-20T01:16:18.202Z,0.00
2019-05-20T01:17:18.203Z,0.00
2019-05-20T01:18:18.193Z,0.00
2019-05-20T01:19:18.172Z,0.00
2019-05-20T01:20:18.157Z,0.00
2019-05-20T01:21:18.146Z,0.00
2019-05-20T01:22:18.137Z,0.00
2019-05-20T01:23:18.140Z,0.00
2019-05-20T01:24:18.137Z,0.00
2019-05-20T01:25:18.109Z,0.00
2019-05-20T01:26:18.093Z,0.00
2019-05-20T01:27:18.082Z,0.00
2019-05-20T01:28:18.074Z,0.00
2019-05-20T01:29:18.078Z,0.00
2019-05-20T01:30:18.058Z,0.00
2019-05-20T01:31:18.040Z,0.00
2019-05-20T01:32:18.027Z,0.00
2019-05-20T01:33:18.018Z,0.00
2019-05-20T01:34:18.008Z,0.00
2019-05-20T01:35:18.023Z,0.00
2019-05-20T01:36:17.993Z,0.00
2019-05-20T01:37:17.974Z,0.00
2019-05-20T01:38:17.963Z,0.00
2019-05-20T01:39:17.961Z,0.00
2019-05-20T01:40:17.942Z,0.00
2019-05-20T01:41:18.112Z,0.00
2019-05-20T01:42:17.933Z,0.00
2019-05-20T01:43:17.908Z,0.00
2019-05-20T01:44:17.899Z,0.00
2019-05-20T01:45:17.887Z,0.00
2019-05-20T01:46:17.877Z,0.00
2019-05-20T01:47:17.885Z,0.00
2019-05-20T01:48:17.865Z,0.00
2019-05-20T01:49:17.844Z,0.00
2019-05-20T01:50:17.866Z,0.00
2019-05-20T01:51:17.823Z,0.00
2019-05-20T01:52:17.811Z,0.00
2019-05-20T01:53:17.810Z,0.00
2019-05-20T01:54:17.801Z,0.00
2019-05-20T01:55:17.777Z,0.00
2019-05-20T01:56:17.767Z,0.00
2019-05-20T01:57:17.758Z,0.00
2019-05-20T01:58:17.753Z,0.00
2019-05-20T01:59:17.744Z,0.00
2019-05-20T02:00:17.733Z,0.00
2019-05-20T02:01:17.732Z,0.00
2019-05-20T02:02:17.703Z,0.00
2019-05-20T02:03:31.131Z,0.00
2019-05-20T02:04:18.689Z,0.00
2019-05-20T02:05:17.669Z,0.00
2019-05-20T02:06:17.668Z,0.00
2019-05-20T02:07:17.648Z,0.00
2019-05-20T02:08:17.644Z,0.00
2019-05-20T02:09:17.626Z,0.00
2019-05-20T02:10:17.635Z,0.00
2019-05-20T02:11:17.602Z,0.00
2019-05-20T02:12:17.604Z,0.00
2019-05-20T02:13:17.583Z,0.00
2019-05-20T02:14:17.623Z,0.00
2019-05-20T02:15:17.562Z,0.00
2019-05-20T02:16:17.560Z,0.00
2019-05-20T02:17:17.538Z,0.00
2019-05-20T02:18:17.540Z,0.00
2019-05-20T02:19:17.515Z,0.00
2019-05-20T02:20:17.504Z,0.00
2019-05-20T02:21:17.494Z,0.00
2019-05-20T02:22:17.495Z,0.00
2019-05-20T02:23:17.470Z,0.00
2019-05-20T02:24:17.475Z,0.00
2019-05-20T02:25:17.499Z,0.00
2019-05-20T02:26:17.439Z,0.00
2019-05-20T02:27:17.428Z,0.00
2019-05-20T02:28:17.446Z,0.00
2019-05-20T02:29:17.409Z,0.00
2019-05-20T02:30:17.410Z,0.00
2019-05-20T02:31:17.384Z,0.00
2019-05-20T02:32:17.372Z,0.00
2019-05-20T02:33:17.366Z,0.00
2019-05-20T02:34:17.371Z,0.00
2019-05-20T02:35:17.344Z,0.00
2019-05-20T02:36:17.340Z,0.00
2019-05-20T02:37:17.327Z,0.00
2019-05-20T02:38:17.309Z,0.00
2019-05-20T02:39:17.304Z,0.00
2019-05-20T02:40:17.296Z,0.00
2019-05-20T02:41:17.280Z,0.00
2019-05-20T02:42:17.297Z,0.00
2019-05-20T02:43:17.256Z,0.00
2019-05-20T02:44:17.247Z,0.00
2019-05-20T02:45:17.232Z,0.00
2019-05-20T02:46:17.255Z,0.00
2019-05-20T02:47:17.220Z,0.00
2019-05-20T02:48:17.216Z,0.00
2019-05-20T02:49:17.193Z,4.00
2019-05-20T02:50:17.200Z,4.00
2019-05-20T02:51:17.174Z,0.00
2019-05-20T02:52:17.169Z,0.00
2019-05-20T02:53:17.152Z,4.00
2019-05-20T02:54:17.163Z,4.00
2019-05-20T02:55:17.127Z,0.00
2019-05-20T02:56:17.117Z,4.00
2019-05-20T02:57:17.104Z,4.00
2019-05-20T02:58:17.110Z,4.00
2019-05-20T02:59:17.090Z,8.00
2019-05-20T03:00:17.082Z,4.00
2019-05-20T03:01:17.066Z,8.00
2019-05-20T03:02:17.060Z,8.00
2019-05-20T03:03:17.052Z,8.00
2019-05-20T03:04:17.047Z,8.00
2019-05-20T03:05:17.027Z,8.00
2019-05-20T03:06:17.017Z,12.00
2019-05-20T03:07:17.005Z,12.00
2019-05-20T03:08:16.994Z,16.00
2019-05-20T03:09:16.986Z,16.00
2019-05-20T03:10:16.981Z,20.00
2019-05-20T03:11:16.959Z,24.00
2019-05-20T03:12:16.962Z,24.00
2019-05-20T03:13:16.940Z,28.00
2019-05-20T03:14:16.930Z,32.00
2019-05-20T03:15:16.922Z,32.00
2019-05-20T03:16:16.915Z,36.00
2019-05-20T03:17:16.894Z,40.00
2019-05-20T03:18:16.898Z,48.00
2019-05-20T03:19:16.904Z,52.00
2019-05-20T03:20:16.875Z,52.00
2019-05-20T03:21:16.854Z,60.00
2019-05-20T03:22:16.861Z,64.00
2019-05-20T03:23:16.834Z,68.00
2019-05-20T03:24:16.832Z,72.00
2019-05-20T03:25:16.818Z,80.00
2019-05-20T03:26:16.798Z,88.00
2019-05-20T03:27:16.788Z,92.00
2019-05-20T03:28:16.790Z,100.00
2019-05-20T03:29:16.780Z,108.00
2019-05-20T03:30:16.794Z,116.00
2019-05-20T03:31:16.744Z,124.00
2019-05-20T03:32:16.736Z,132.00
2019-05-20T03:33:16.733Z,140.00
2019-05-20T03:34:42.114Z,152.00
2019-05-20T03:35:17.721Z,160.00
2019-05-20T03:36:16.721Z,168.00
2019-05-20T03:37:16.702Z,180.00
2019-05-20T03:38:16.680Z,192.00
2019-05-20T03:39:16.660Z,200.00
2019-05-20T03:40:16.659Z,208.00
2019-05-20T03:41:16.651Z,216.00
2019-05-20T03:42:16.638Z,224.00
2019-05-20T03:43:16.621Z,228.00
2019-05-20T03:44:16.606Z,224.00
2019-05-20T03:45:16.618Z,212.00
2019-05-20T03:46:16.609Z,196.00
2019-05-20T03:47:16.583Z,192.00
2019-05-20T03:48:16.575Z,192.00
2019-05-20T03:49:16.552Z,196.00
2019-05-20T03:50:16.552Z,200.00
2019-05-20T03:51:16.553Z,204.00
2019-05-20T03:52:16.530Z,208.00
2019-05-20T03:53:16.509Z,212.00
2019-05-20T03:54:16.513Z,208.00
2019-05-20T03:55:16.499Z,204.00
2019-05-20T03:56:16.483Z,208.00
2019-05-20T03:57:16.487Z,216.00
2019-05-20T03:58:16.468Z,216.00
2019-05-20T03:59:16.462Z,220.00
2019-05-20T04:00:16.442Z,224.00
2019-05-20T04:01:16.492Z,236.00
2019-05-20T04:02:16.416Z,236.00
2019-05-20T04:03:16.426Z,240.00
2019-05-20T04:04:16.412Z,240.00
2019-05-20T04:05:16.383Z,236.00
2019-05-20T04:06:16.379Z,244.00
2019-05-20T04:07:16.366Z,264.00
2019-05-20T04:08:16.347Z,264.00
2019-05-20T04:09:16.336Z,268.00
2019-05-20T04:10:16.343Z,284.00
2019-05-20T04:11:16.325Z,284.00
2019-05-20T04:12:16.316Z,292.00
2019-05-20T04:13:16.315Z,292.00
2019-05-20T04:14:16.282Z,304.00
2019-05-20T04:15:16.285Z,316.00
2019-05-20T04:16:16.282Z,324.00
2019-05-20T04:17:16.252Z,328.00
2019-05-20T04:18:16.248Z,320.00
2019-05-20T04:19:16.249Z,308.00
2019-05-20T04:20:16.222Z,280.00
2019-05-20T04:21:16.207Z,288.00
2019-05-20T04:22:16.224Z,268.00
2019-05-20T04:23:16.188Z,280.00
2019-05-20T04:24:16.184Z,272.00
2019-05-20T04:25:16.174Z,276.00
2019-05-20T04:26:16.156Z,288.00
2019-05-20T04:27:16.207Z,284.00
2019-05-20T04:28:16.183Z,284.00
2019-05-20T04:29:16.117Z,280.00
2019-05-20T04:30:18.838Z,272.00
2019-05-20T04:31:16.105Z,268.00
2019-05-20T04:32:16.091Z,276.00
2019-05-20T04:33:16.083Z,300.00
2019-05-20T04:34:16.075Z,316.00
2019-05-20T04:35:22.487Z,324.00
2019-05-20T04:36:17.057Z,356.00
2019-05-20T04:37:16.031Z,360.00
2019-05-20T04:38:16.025Z,368.00
2019-05-20T04:39:16.020Z,392.00
2019-05-20T04:40:16.011Z,424.00
2019-05-20T04:41:16.006Z,424.00
2019-05-20T04:42:15.993Z,416.00
2019-05-20T04:43:15.974Z,452.00
2019-05-20T04:44:15.967Z,468.00
2019-05-20T04:45:15.944Z,492.00
2019-05-20T04:46:15.946Z,496.00
2019-05-20T04:47:15.928Z,492.00
2019-05-20T04:48:15.925Z,488.00
2019-05-20T04:49:15.905Z,524.00
2019-05-20T04:50:15.896Z,516.00
2019-05-20T04:51:15.892Z,556.00
2019-05-20T04:52:15.888Z,588.00
2019-05-20T04:53:15.860Z,624.00
2019-05-20T04:54:15.856Z,632.00
2019-05-20T04:55:15.859Z,632.00
2019-05-20T04:56:15.831Z,660.00
2019-05-20T04:57:15.820Z,684.00
2019-05-20T04:58:15.819Z,708.00
2019-05-20T04:59:15.794Z,724.00
2019-05-20T05:00:15.797Z,720.00
2019-05-20T05:01:15.773Z,724.00
2019-05-20T05:02:15.767Z,728.00
2019-05-20T05:03:15.754Z,736.00
2019-05-20T05:04:15.755Z,744.00
2019-05-20T05:05:15.733Z,784.00
2019-05-20T05:06:15.732Z,812.00
2019-05-20T05:07:15.711Z,832.00
2019-05-20T05:08:15.703Z,892.00
2019-05-20T05:09:15.853Z,940.00
2019-05-20T05:10:15.697Z,1020.00
2019-05-20T05:11:15.668Z,984.00
2019-05-20T05:12:15.665Z,976.00
2019-05-20T05:13:15.648Z,944.00
2019-05-20T05:14:15.636Z,1024.00
2019-05-20T05:15:15.622Z,1072.00
2019-05-20T05:16:15.623Z,1132.00
2019-05-20T05:17:15.608Z,1132.00
2019-05-20T05:18:15.607Z,1048.00
2019-05-20T05:19:15.588Z,1028.00
2019-05-20T05:20:18.496Z,1044.00
2019-05-20T05:21:15.558Z,1016.00
2019-05-20T05:22:15.559Z,940.00
2019-05-20T05:23:15.538Z,896.00
2019-05-20T05:24:15.539Z,888.00
2019-05-20T05:25:15.518Z,852.00
2019-05-20T05:26:15.509Z,872.00
2019-05-20T05:27:15.495Z,892.00
2019-05-20T05:28:15.493Z,1008.00
2019-05-20T05:29:15.478Z,1004.00
2019-05-20T05:30:15.488Z,988.00
2019-05-20T05:31:15.453Z,984.00
2019-05-20T05:32:15.468Z,992.00
2019-05-20T05:33:15.435Z,1036.00
2019-05-20T05:34:15.430Z,1072.00
2019-05-20T05:35:15.436Z,964.00
2019-05-20T05:36:15.414Z,952.00
2019-05-20T05:37:15.389Z,936.00
2019-05-20T05:38:15.385Z,920.00
2019-05-20T05:39:15.374Z,928.00
2019-05-20T05:40:15.397Z,956.00
2019-05-20T05:41:15.356Z,968.00
2019-05-20T05:42:15.395Z,956.00
2019-05-20T05:43:15.325Z,968.00
2019-05-20T05:44:15.314Z,1004.00
2019-05-20T05:45:15.314Z,944.00
2019-05-20T05:46:15.303Z,952.00
2019-05-20T05:47:15.290Z,1064.00
2019-05-20T05:48:15.284Z,968.00
2019-05-20T05:49:15.262Z,1004.00
2019-05-20T05:50:15.251Z,948.00
2019-05-20T05:51:15.246Z,952.00
2019-05-20T05:52:15.248Z,996.00
2019-05-20T05:53:15.227Z,940.00
2019-05-20T05:54:15.229Z,1016.00
2019-05-20T05:55:15.196Z,1068.00
2019-05-20T05:56:15.193Z,1168.00
2019-05-20T05:57:15.177Z,1244.00
2019-05-20T05:58:15.187Z,1160.00
2019-05-20T05:59:15.168Z,1088.00
2019-05-20T06:00:15.155Z,1144.00
2019-05-20T06:01:15.134Z,1220.00
2019-05-20T06:02:15.127Z,1200.00
2019-05-20T06:03:15.114Z,1112.00
2019-05-20T06:04:15.128Z,1200.00
2019-05-20T06:05:15.094Z,1140.00
2019-05-20T06:06:15.091Z,1132.00
2019-05-20T06:07:15.072Z,1172.00
2019-05-20T06:08:15.065Z,1176.00
2019-05-20T06:09:15.055Z,1224.00
2019-05-20T06:10:15.053Z,1332.00
2019-05-20T06:11:15.033Z,1332.00
2019-05-20T06:12:15.026Z,1240.00
2019-05-20T06:13:15.009Z,1160.00
2019-05-20T06:14:15.004Z,1204.00
2019-05-20T06:15:14.994Z,1392.00
2019-05-20T06:16:14.992Z,1312.00
2019-05-20T06:17:14.971Z,1320.00
2019-05-20T06:18:14.964Z,1484.00
2019-05-20T06:19:14.976Z,1516.00
2019-05-20T06:20:14.930Z,1404.00
2019-05-20T06:21:14.922Z,1404.00
2019-05-20T06:22:14.919Z,1348.00
2019-05-20T06:23:14.901Z,1284.00
2019-05-20T06:24:14.896Z,1336.00
2019-05-20T06:25:14.885Z,1412.00
2019-05-20T06:26:14.931Z,1452.00
2019-05-20T06:27:14.856Z,1472.00
2019-05-20T06:28:14.857Z,1444.00
2019-05-20T06:29:14.830Z,1484.00
2019-05-20T06:30:14.834Z,1544.00
2019-05-20T06:31:14.813Z,1504.00
2019-05-20T06:32:15.097Z,1480.00
2019-05-20T06:33:14.787Z,1520.00
2019-05-20T06:34:14.959Z,1444.00
2019-05-20T06:35:14.908Z,1436.00
2019-05-20T06:36:26.566Z,1560.00
2019-05-20T06:37:15.742Z,1588.00
2019-05-20T06:38:14.737Z,1572.00
2019-05-20T06:39:14.730Z,1516.00
2019-05-20T06:40:14.721Z,1480.00
2019-05-20T06:41:14.702Z,1428.00
2019-05-20T06:42:14.697Z,1424.00
2019-05-20T06:43:14.678Z,1464.00
2019-05-20T06:44:14.665Z,1440.00
2019-05-20T06:45:14.655Z,1504.00
2019-05-20T06:46:14.656Z,1752.00
2019-05-20T06:47:14.633Z,2008.00
2019-05-20T06:48:14.637Z,1996.00
2019-05-20T06:49:14.611Z,1916.00
2019-05-20T06:50:14.602Z,1896.00
2019-05-20T06:51:14.591Z,1776.00
2019-05-20T06:52:14.591Z,1752.00
2019-05-20T06:53:14.569Z,1692.00
2019-05-20T06:54:14.569Z,1708.00
2019-05-20T06:55:14.545Z,1736.00
2019-05-20T06:56:14.534Z,1940.00
2019-05-20T06:57:14.617Z,2040.00
2019-05-20T06:58:14.529Z,1844.00
2019-05-20T06:59:14.505Z,1804.00
2019-05-20T07:00:14.503Z,1700.00
2019-05-20T07:01:14.480Z,1536.00
2019-05-20T07:02:14.470Z,1396.00
2019-05-20T07:03:14.458Z,1384.00
2019-05-20T07:04:14.466Z,1196.00
2019-05-20T07:05:14.437Z,1536.00
2019-05-20T07:06:14.448Z,1964.00
2019-05-20T07:07:20.825Z,1960.00
2019-05-20T07:08:15.405Z,1972.00
2019-05-20T07:09:14.394Z,1904.00
2019-05-20T07:10:14.398Z,1820.00
2019-05-20T07:11:14.390Z,1916.00
2019-05-20T07:12:14.367Z,2064.00
2019-05-20T07:13:16.369Z,2060.00
2019-05-20T07:14:14.377Z,2128.00
2019-05-20T07:15:14.327Z,2060.00
2019-05-20T07:16:14.348Z,2052.00
2019-05-20T07:17:14.303Z,2052.00
2019-05-20T07:18:14.304Z,1988.00
2019-05-20T07:19:14.283Z,1888.00
2019-05-20T07:20:14.270Z,1952.00
2019-05-20T07:21:14.260Z,2060.00
2019-05-20T07:22:14.261Z,2128.00
2019-05-20T07:23:14.237Z,2160.00
2019-05-20T07:24:14.243Z,2216.00
2019-05-20T07:25:14.216Z,2168.00
2019-05-20T07:26:14.205Z,2168.00
2019-05-20T07:27:14.193Z,2128.00
2019-05-20T07:28:14.196Z,2096.00
2019-05-20T07:29:14.197Z,2152.00
2019-05-20T07:30:15.549Z,2176.00
2019-05-20T07:31:14.154Z,2184.00
2019-05-20T07:32:14.142Z,2272.00
2019-05-20T07:33:14.129Z,2392.00
2019-05-20T07:34:14.130Z,2424.00
2019-05-20T07:35:28.895Z,2428.00
2019-05-20T07:36:15.109Z,2560.00
2019-05-20T07:37:14.086Z,2696.00
2019-05-20T07:38:14.075Z,2768.00
2019-05-20T07:39:14.067Z,2708.00
2019-05-20T07:40:14.065Z,2948.00
2019-05-20T07:41:14.043Z,2920.00
2019-05-20T07:42:14.041Z,2788.00
2019-05-20T07:43:14.024Z,2828.00
2019-05-20T07:44:14.011Z,2812.00
2019-05-20T07:45:14.020Z,2928.00
2019-05-20T07:46:14.005Z,2952.00
2019-05-20T07:47:13.985Z,3052.00
2019-05-20T07:48:13.981Z,3088.00
2019-05-20T07:49:13.958Z,3024.00
2019-05-20T07:50:13.949Z,2960.00
2019-05-20T07:51:13.942Z,2872.00
2019-05-20T07:52:13.970Z,2920.00
2019-05-20T07:53:13.915Z,3000.00
2019-05-20T07:54:13.929Z,2940.00
2019-05-20T07:55:13.895Z,3008.00
2019-05-20T07:56:13.885Z,3108.00
2019-05-20T07:57:13.879Z,3156.00
2019-05-20T07:58:13.889Z,3104.00
2019-05-20T07:59:13.853Z,3144.00
2019-05-20T08:00:13.855Z,3140.00
2019-05-20T08:01:13.853Z,3048.00
2019-05-20T08:02:13.821Z,2904.00
2019-05-20T08:03:13.809Z,2756.00
2019-05-20T08:04:13.878Z,2760.00
2019-05-20T08:05:13.796Z,2768.00
2019-05-20T08:06:13.792Z,2940.00
2019-05-20T08:07:27.483Z,3188.00
2019-05-20T08:08:14.755Z,3424.00
2019-05-20T08:09:13.745Z,3512.00
2019-05-20T08:10:13.791Z,3468.00
2019-05-20T08:11:13.724Z,3276.00
2019-05-20T08:12:13.723Z,3236.00
2019-05-20T08:13:13.703Z,3228.00
2019-05-20T08:14:13.692Z,3300.00
2019-05-20T08:15:13.683Z,3304.00
2019-05-20T08:16:13.685Z,3364.00
2019-05-20T08:17:13.666Z,3332.00
2019-05-20T08:18:13.660Z,3144.00
2019-05-20T08:19:13.645Z,3016.00
2019-05-20T08:20:13.629Z,2968.00
2019-05-20T08:21:13.621Z,2908.00
2019-05-20T08:22:13.619Z,2832.00
2019-05-20T08:23:13.605Z,3032.00
2019-05-20T08:24:13.600Z,3024.00
2019-05-20T08:25:13.576Z,3152.00
2019-05-20T08:26:13.563Z,3240.00
2019-05-20T08:27:13.564Z,3204.00
2019-05-20T08:28:13.558Z,3084.00
2019-05-20T08:29:13.531Z,3044.00
2019-05-20T08:30:14.279Z,3016.00
2019-05-20T08:31:13.522Z,3020.00
2019-05-20T08:32:13.496Z,3124.00
2019-05-20T08:33:13.485Z,3244.00
2019-05-20T08:34:13.485Z,3272.00
2019-05-20T08:35:13.467Z,3280.00
2019-05-20T08:36:13.464Z,3368.00
2019-05-20T08:37:13.486Z,3332.00
2019-05-20T08:38:13.431Z,3080.00
2019-05-20T08:39:13.421Z,2912.00
2019-05-20T08:40:13.421Z,2828.00
2019-05-20T08:41:13.399Z,2804.00
2019-05-20T08:42:13.402Z,2864.00
2019-05-20T08:43:13.376Z,2924.00
2019-05-20T08:44:13.365Z,3044.00
2019-05-20T08:45:13.356Z,3252.00
2019-05-20T08:46:13.360Z,3324.00
2019-05-20T08:47:13.332Z,3340.00
2019-05-20T08:48:13.337Z,3340.00
2019-05-20T08:49:13.315Z,3392.00
2019-05-20T08:50:16.095Z,3376.00
2019-05-20T08:51:13.290Z,3436.00
2019-05-20T08:52:13.344Z,3460.00
2019-05-20T08:53:13.274Z,3804.00
2019-05-20T08:54:13.271Z,3736.00
2019-05-20T08:55:13.247Z,3896.00
2019-05-20T08:56:13.252Z,4004.00
2019-05-20T08:57:13.231Z,3856.00
2019-05-20T08:58:13.244Z,3944.00
2019-05-20T08:59:13.205Z,4028.00
2019-05-20T09:00:13.207Z,4068.00
2019-05-20T09:01:13.185Z,3912.00
2019-05-20T09:02:13.187Z,3736.00
2019-05-20T09:03:13.161Z,3600.00
2019-05-20T09:04:13.161Z,3764.00
2019-05-20T09:05:13.144Z,3980.00
2019-05-20T09:06:13.153Z,3912.00
2019-05-20T09:07:13.122Z,3756.00
2019-05-20T09:08:13.107Z,3704.00
2019-05-20T09:09:13.096Z,3572.00
2019-05-20T09:10:13.099Z,3444.00
2019-05-20T09:11:13.075Z,3376.00
2019-05-20T09:12:13.076Z,3484.00
2019-05-20T09:13:13.052Z,3580.00
2019-05-20T09:14:13.050Z,3600.00
2019-05-20T09:15:13.031Z,3744.00
2019-05-20T09:16:13.037Z,3624.00
2019-05-20T09:17:13.011Z,3624.00
2019-05-20T09:18:13.023Z,3736.00
2019-05-20T09:19:12.993Z,3784.00
2019-05-20T09:20:12.977Z,3796.00
2019-05-20T09:21:13.080Z,3872.00
2019-05-20T09:22:12.978Z,4136.00
2019-05-20T09:23:12.948Z,4220.00
2019-05-20T09:24:12.947Z,4408.00
2019-05-20T09:25:12.967Z,4500.00
2019-05-20T09:26:12.915Z,4276.00
2019-05-20T09:27:12.927Z,4368.00
2019-05-20T09:28:12.912Z,4720.00
2019-05-20T09:29:12.885Z,4508.00
2019-05-20T09:30:12.884Z,4408.00
2019-05-20T09:31:13.123Z,4212.00
2019-05-20T09:32:12.852Z,3888.00
2019-05-20T09:33:12.915Z,3736.00
2019-05-20T09:34:12.869Z,3688.00
2019-05-20T09:35:12.829Z,3672.00
2019-05-20T09:36:12.819Z,3484.00
2019-05-20T09:37:12.810Z,3600.00
2019-05-20T09:38:20.262Z,3580.00
2019-05-20T09:39:13.815Z,3536.00
2019-05-20T09:40:12.768Z,3452.00
2019-05-20T09:41:12.753Z,3508.00
2019-05-20T09:42:12.781Z,3368.00
2019-05-20T09:43:12.733Z,3268.00
2019-05-20T09:44:12.723Z,3224.00
2019-05-20T09:45:12.733Z,3224.00
2019-05-20T09:46:12.712Z,3268.00
2019-05-20T09:47:12.690Z,3388.00
2019-05-20T09:48:12.690Z,3476.00
2019-05-20T09:49:12.669Z,3424.00
2019-05-20T09:50:12.658Z,3428.00
2019-05-20T09:51:12.667Z,3484.00
2019-05-20T09:52:12.639Z,3696.00
2019-05-20T09:53:12.629Z,3748.00
2019-05-20T09:54:12.632Z,3728.00
2019-05-20T09:55:12.604Z,3416.00
2019-05-20T09:56:12.599Z,3232.00
2019-05-20T09:57:12.594Z,3160.00
2019-05-20T09:58:12.573Z,3052.00
2019-05-20T09:59:16.209Z,3080.00
2019-05-20T10:00:12.561Z,3276.00
2019-05-20T10:01:12.540Z,3348.00
2019-05-20T10:02:12.535Z,3548.00
2019-05-20T10:03:12.542Z,3344.00
2019-05-20T10:04:12.508Z,3176.00
2019-05-20T10:05:12.504Z,3000.00
2019-05-20T10:06:12.517Z,2856.00
2019-05-20T10:07:12.478Z,2936.00
2019-05-20T10:08:12.466Z,3060.00
2019-05-20T10:09:12.469Z,3216.00
2019-05-20T10:10:12.444Z,3260.00
2019-05-20T10:11:12.463Z,3252.00
2019-05-20T10:12:12.450Z,3152.00
2019-05-20T10:13:12.420Z,2948.00
2019-05-20T10:14:12.403Z,2968.00
2019-05-20T10:15:12.406Z,3120.00
2019-05-20T10:16:12.379Z,3388.00
2019-05-20T10:17:12.368Z,3356.00
2019-05-20T10:18:12.378Z,3356.00
2019-05-20T10:19:12.347Z,3044.00
2019-05-20T10:20:12.336Z,3012.00
2019-05-20T10:21:12.343Z,3032.00
2019-05-20T10:22:12.316Z,3088.00
2019-05-20T10:23:15.725Z,3124.00
2019-05-20T10:24:12.310Z,3008.00
2019-05-20T10:25:12.282Z,3260.00
2019-05-20T10:26:12.272Z,3244.00
2019-05-20T10:27:12.273Z,3112.00
2019-05-20T10:28:12.253Z,3248.00
2019-05-20T10:29:12.240Z,3420.00
2019-05-20T10:30:12.237Z,3396.00
2019-05-20T10:31:12.233Z,3328.00
2019-05-20T10:32:12.210Z,3076.00
2019-05-20T10:33:12.216Z,2800.00
2019-05-20T10:34:12.188Z,3000.00
2019-05-20T10:35:12.188Z,3412.00
2019-05-20T10:36:12.175Z,3692.00
2019-05-20T10:37:12.155Z,3936.00
2019-05-20T10:38:12.145Z,4124.00
2019-05-20T10:39:12.146Z,4080.00
2019-05-20T10:40:12.122Z,4140.00
2019-05-20T10:41:12.137Z,4040.00
2019-05-20T10:42:12.111Z,3784.00
2019-05-20T10:43:12.091Z,3640.00
2019-05-20T10:44:12.080Z,3532.00
2019-05-20T10:45:12.081Z,3692.00
2019-05-20T10:46:12.059Z,3680.00
2019-05-20T10:47:12.048Z,3564.00
2019-05-20T10:48:12.048Z,3364.00
2019-05-20T10:49:12.028Z,3372.00
2019-05-20T10:50:12.016Z,3484.00
2019-05-20T10:51:12.054Z,3364.00
2019-05-20T10:52:11.996Z,3192.00
2019-05-20T10:53:11.988Z,3116.00
2019-05-20T10:54:11.987Z,3060.00
2019-05-20T10:55:11.965Z,3068.00
2019-05-20T10:56:12.149Z,3140.00
2019-05-20T10:57:11.958Z,3196.00
2019-05-20T10:58:11.932Z,3216.00
2019-05-20T10:59:12.494Z,3336.00
2019-05-20T11:00:11.920Z,3464.00
2019-05-20T11:01:11.900Z,3532.00
2019-05-20T11:02:11.889Z,3520.00
2019-05-20T11:03:11.895Z,3664.00
2019-05-20T11:04:11.869Z,3736.00
2019-05-20T11:05:11.860Z,3836.00
2019-05-20T11:06:11.975Z,4024.00
2019-05-20T11:07:11.838Z,4480.00
2019-05-20T11:08:11.829Z,4344.00
2019-05-20T11:09:14.422Z,4256.00
2019-05-20T11:10:11.806Z,4184.00
2019-05-20T11:11:14.355Z,4280.00
2019-05-20T11:12:11.795Z,4364.00
2019-05-20T11:13:11.774Z,4468.00
2019-05-20T11:14:11.763Z,4272.00
2019-05-20T11:15:11.765Z,4400.00
2019-05-20T11:16:11.751Z,4772.00
2019-05-20T11:17:14.962Z,4412.00
2019-05-20T11:18:11.733Z,4308.00
2019-05-20T11:19:11.710Z,4080.00
2019-05-20T11:20:11.699Z,3744.00
2019-05-20T11:21:11.725Z,3628.00
2019-05-20T11:22:11.680Z,3864.00
2019-05-20T11:23:11.666Z,4372.00
2019-05-20T11:24:11.664Z,4980.00
2019-05-20T11:25:11.647Z,5204.00
2019-05-20T11:26:11.635Z,5692.00
2019-05-20T11:27:11.652Z,5888.00
2019-05-20T11:28:12.106Z,6192.00
2019-05-20T11:29:11.604Z,6088.00
2019-05-20T11:30:11.601Z,5916.00
2019-05-20T11:31:11.583Z,5312.00
2019-05-20T11:32:11.572Z,5120.00
2019-05-20T11:33:11.575Z,4588.00
2019-05-20T11:34:11.546Z,4316.00
2019-05-20T11:35:11.543Z,4272.00
2019-05-20T11:36:11.538Z,4224.00
2019-05-20T11:37:11.515Z,4112.00
2019-05-20T11:38:11.509Z,3916.00
2019-05-20T11:39:11.511Z,3896.00
2019-05-20T11:40:12.299Z,4060.00
2019-05-20T11:41:11.472Z,4160.00
2019-05-20T11:42:11.471Z,4252.00
2019-05-20T11:43:11.448Z,4376.00
2019-05-20T11:44:12.116Z,4600.00
2019-05-20T11:45:11.437Z,4784.00
2019-05-20T11:46:11.418Z,4812.00
2019-05-20T11:47:11.406Z,4976.00
2019-05-20T11:48:11.410Z,5236.00
2019-05-20T11:49:11.389Z,5764.00
2019-05-20T11:50:11.377Z,5816.00
2019-05-20T11:51:11.373Z,5408.00
2019-05-20T11:52:11.353Z,5176.00
2019-05-20T11:53:11.346Z,5088.00
2019-05-20T11:54:11.340Z,4640.00
2019-05-20T11:55:11.327Z,4140.00
2019-05-20T11:56:12.090Z,3992.00
2019-05-20T11:57:11.310Z,4064.00
2019-05-20T11:58:15.728Z,3528.00
2019-05-20T11:59:12.275Z,3964.00
2019-05-20T12:00:11.274Z,4596.00
2019-05-20T12:01:11.256Z,4768.00
2019-05-20T12:02:11.247Z,4656.00
2019-05-20T12:03:11.254Z,4768.00
2019-05-20T12:04:11.223Z,5220.00
2019-05-20T12:05:11.224Z,5516.00
2019-05-20T12:06:11.228Z,5688.00
2019-05-20T12:07:11.193Z,5620.00
2019-05-20T12:08:11.181Z,5404.00
2019-05-20T12:09:11.181Z,5188.00
2019-05-20T12:10:11.162Z,5032.00
2019-05-20T12:11:11.151Z,5116.00
2019-05-20T12:12:11.160Z,5296.00
2019-05-20T12:13:11.138Z,5268.00
2019-05-20T12:14:11.119Z,4984.00
2019-05-20T12:15:11.117Z,5104.00
2019-05-20T12:16:11.097Z,4996.00
2019-05-20T12:17:11.086Z,4612.00
2019-05-20T12:18:11.086Z,4468.00
2019-05-20T12:19:11.066Z,4572.00
2019-05-20T12:20:12.485Z,5136.00
2019-05-20T12:21:11.053Z,5080.00
2019-05-20T12:22:11.033Z,4820.00
2019-05-20T12:23:11.026Z,4480.00
2019-05-20T12:24:11.021Z,4632.00
2019-05-20T12:25:11.004Z,4512.00
2019-05-20T12:26:11.011Z,4396.00
2019-05-20T12:27:10.993Z,4380.00